Time;durP1;ratioP1;P1;durP2;ratioP2;P2;SDS_P1;SDS_P2;PMS_P1;PMS_P2;Temp;Humidity;BMP_temperature;BMP_pressure;BME280_temperature;BME280_humidity;BME280_pressure;Samples;Min_cycle;Max_cycle;Signal;HPM_P1;HPM_P2
2021/08/04 00:17:09;;;;;;;13.45;6.40;;;;;;;;;;4720704;28;20103;-66
2021/08/04 00:19:35;;;;;;;8.10;5.37;;;;;;;;;;4191208;34;20117;-66
2021/08/04 00:22:02;;;;;;;10.52;5.47;;;;;;;;;;4191562;34;20113;-67
2021/08/04 00:24:28;;;;;;;13.85;6.97;;;;;;;;;;4191592;34;20202;-67
2021/08/04 00:26:53;;;;;;;9.52;5.60;;;;;;;;;;4191436;34;20099;-67
2021/08/04 00:29:19;;;;;;;17.30;6.82;;;;;;;;;;4191828;34;20133;-67
2021/08/04 00:31:45;;;;;;;14.60;5.65;;;;;;;;;;4191603;34;22395;-67
2021/08/04 00:34:11;;;;;;;14.10;5.47;;;;;;;;;;4191827;34;20139;-67
2021/08/04 00:36:37;;;;;;;17.73;6.00;;;;;;;;;;4191453;34;20213;-67
2021/08/04 00:39:03;;;;;;;13.43;6.05;;;;;;;;;;4191653;34;20530;-67
2021/08/04 00:41:36;;;;;;;12.05;5.50;;;;;;;;;;4191697;34;20118;-67
2021/08/04 00:44:02;;;;;;;13.20;5.57;;;;;;;;;;4179017;34;20454;-67
2021/08/04 00:46:28;;;;;;;10.23;5.18;;;;;;;;;;4191402;34;20127;-67
2021/08/04 00:48:53;;;;;;;9.90;6.05;;;;;;;;;;4191571;34;20141;-66
2021/08/04 00:51:19;;;;;;;7.90;5.37;;;;;;;;;;4191459;34;20540;-67
2021/08/04 00:53:45;;;;;;;10.93;5.82;;;;;;;;;;4191659;34;20526;-67
2021/08/04 00:56:11;;;;;;;8.80;5.12;;;;;;;;;;4191476;34;20129;-67
2021/08/04 00:58:40;;;;;;;14.20;6.53;;;;;;;;;;4191520;34;20110;-67
2021/08/04 01:01:20;;;;;;;8.05;4.80;;;;;;;;;;4190550;34;20140;-67
2021/08/04 01:03:49;;;;;;;11.18;5.28;;;;;;;;;;4191775;34;20282;-67
2021/08/04 01:06:19;;;;;;;14.57;5.47;;;;;;;;;;4178842;34;20114;-67
2021/08/04 01:08:50;;;;;;;10.23;5.53;;;;;;;;;;4178558;34;20114;-67
2021/08/04 01:11:16;;;;;;;21.92;6.75;;;;;;;;;;4191487;34;20169;-67
2021/08/04 01:13:46;;;;;;;11.40;4.87;;;;;;;;;;4191344;34;20202;-67
2021/08/04 01:16:18;;;;;;;7.68;5.25;;;;;;;;;;4178514;34;20152;-67
2021/08/04 01:18:54;;;;;;;14.23;5.72;;;;;;;;;;4178818;34;20526;-68
2021/08/04 01:21:23;;;;;;;10.10;5.05;;;;;;;;;;4178605;34;20118;-68
2021/08/04 01:24:01;;;;;;;22.37;5.47;;;;;;;;;;4177852;34;20110;-68
2021/08/04 01:26:39;;;;;;;9.40;4.90;;;;;;;;;;4178856;34;20117;-68
2021/08/04 01:29:08;;;;;;;10.55;5.05;;;;;;;;;;4178771;34;20118;-68
2021/08/04 01:31:34;;;;;;;11.93;5.35;;;;;;;;;;4178660;34;20094;-67
2021/08/04 01:34:00;;;;;;;7.32;4.50;;;;;;;;;;4167170;34;20126;-68
2021/08/04 01:36:26;;;;;;;6.87;4.20;;;;;;;;;;4167260;34;20158;-68
2021/08/04 01:38:52;;;;;;;12.48;4.10;;;;;;;;;;4191489;34;20428;-68
2021/08/04 01:41:18;;;;;;;6.97;4.60;;;;;;;;;;4178437;34;20087;-68
2021/08/04 01:43:44;;;;;;;13.43;4.95;;;;;;;;;;4178458;34;20439;-68
2021/08/04 01:46:11;;;;;;;12.00;4.75;;;;;;;;;;4178513;34;20137;-69
2021/08/04 01:48:38;;;;;;;7.62;4.37;;;;;;;;;;4178320;34;20186;-69
2021/08/04 01:51:04;;;;;;;9.18;4.22;;;;;;;;;;4191039;34;20534;-69
2021/08/04 01:53:30;;;;;;;10.40;5.18;;;;;;;;;;4190855;34;20518;-69
2021/08/04 01:55:56;;;;;;;10.07;4.43;;;;;;;;;;4191086;34;20197;-69
2021/08/04 01:58:22;;;;;;;7.85;4.20;;;;;;;;;;4190943;34;20121;-69
2021/08/04 02:00:48;;;;;;;14.27;4.45;;;;;;;;;;4178577;34;20118;-69
2021/08/04 02:03:14;;;;;;;6.80;4.20;;;;;;;;;;4191137;34;20133;-69
2021/08/04 02:05:40;;;;;;;10.15;4.05;;;;;;;;;;4190899;34;20189;-69
2021/08/04 02:08:25;;;;;;;9.70;4.85;;;;;;;;;;4178165;34;20527;-69
2021/08/04 02:11:06;;;;;;;10.30;4.72;;;;;;;;;;4178173;34;20110;-69
2021/08/04 02:13:42;;;;;;;8.07;4.18;;;;;;;;;;4190807;34;20669;-69
2021/08/04 02:16:36;;;;;;;11.82;4.82;;;;;;;;;;4178308;34;20113;-69
2021/08/04 02:19:11;;;;;;;8.00;3.97;;;;;;;;;;4190926;34;20529;-70
2021/08/04 02:21:37;;;;;;;11.35;4.18;;;;;;;;;;4178112;34;20130;-69
2021/08/04 02:24:03;;;;;;;32.25;16.25;;;;;;;;;;4190825;34;20114;-71
2021/08/04 02:26:29;;;;;;;8.38;5.95;;;;;;;;;;4190701;34;20137;-70
2021/08/04 02:28:56;;;;;;;9.30;3.53;;;;;;;;;;4177982;34;20135;-70
2021/08/04 02:31:22;;;;;;;8.15;4.18;;;;;;;;;;4177940;34;20205;-70
2021/08/04 02:33:48;;;;;;;9.43;3.60;;;;;;;;;;4177794;34;20134;-70
2021/08/04 02:36:14;;;;;;;12.88;4.70;;;;;;;;;;4166057;34;20235;-69
2021/08/04 02:38:40;;;;;;;11.25;3.78;;;;;;;;;;4177852;34;20173;-70
2021/08/04 02:41:06;;;;;;;6.10;4.03;;;;;;;;;;4178054;34;20149;-70
2021/08/04 02:43:32;;;;;;;7.80;3.67;;;;;;;;;;4190566;34;20110;-70
2021/08/04 02:45:58;;;;;;;9.48;4.50;;;;;;;;;;4190592;34;20138;-70
2021/08/04 02:48:24;;;;;;;8.02;3.97;;;;;;;;;;4177848;34;20442;-69
2021/08/04 02:51:04;;;;;;;5.28;3.75;;;;;;;;;;4190828;34;20142;-70
2021/08/04 02:53:29;;;;;;;8.25;3.58;;;;;;;;;;4190494;34;20198;-69
2021/08/04 02:55:56;;;;;;;14.40;3.87;;;;;;;;;;4177863;34;20130;-70
2021/08/04 02:58:21;;;;;;;12.80;4.62;;;;;;;;;;4177980;34;20193;-70
2021/08/04 03:00:48;;;;;;;13.60;4.20;;;;;;;;;;4190518;34;20166;-69
2021/08/04 03:03:14;;;;;;;10.95;4.10;;;;;;;;;;4190500;34;20141;-69
2021/08/04 03:05:40;;;;;;;5.10;3.78;;;;;;;;;;4190408;34;20551;-69
2021/08/04 03:08:05;;;;;;;9.25;3.80;;;;;;;;;;4190201;34;20153;-71
2021/08/04 03:10:31;;;;;;;6.82;3.90;;;;;;;;;;4190412;34;20129;-69
2021/08/04 03:12:58;;;;;;;8.93;3.90;;;;;;;;;;4188407;34;20226;-70
2021/08/04 03:15:24;;;;;;;8.60;3.92;;;;;;;;;;4188074;34;20136;-71
2021/08/04 03:17:49;;;;;;;8.48;3.67;;;;;;;;;;4187913;34;20545;-70
2021/08/04 03:20:15;;;;;;;8.55;3.85;;;;;;;;;;4188074;34;20138;-71
2021/08/04 03:22:45;;;;;;;8.60;4.68;;;;;;;;;;4188029;34;20114;-70
2021/08/04 03:25:12;;;;;;;5.07;3.20;;;;;;;;;;4187908;34;20118;-70
2021/08/04 03:27:38;;;;;;;7.68;4.30;;;;;;;;;;4189720;34;20102;-68
2021/08/04 03:30:04;;;;;;;9.15;3.90;;;;;;;;;;4190555;34;20121;-69
2021/08/04 03:32:30;;;;;;;5.12;3.37;;;;;;;;;;4186522;34;20554;-70
2021/08/04 03:34:56;;;;;;;4.75;3.28;;;;;;;;;;4189316;34;20153;-70
2021/08/04 03:37:22;;;;;;;8.05;3.28;;;;;;;;;;4176904;34;20125;-71
2021/08/04 03:39:47;;;;;;;8.77;3.40;;;;;;;;;;4189787;34;20129;-71
2021/08/04 03:42:16;;;;;;;16.12;4.30;;;;;;;;;;4189701;34;20121;-71
2021/08/04 03:44:42;;;;;;;14.30;5.22;;;;;;;;;;4190007;34;20174;-69
2021/08/04 03:47:08;;;;;;;5.72;3.17;;;;;;;;;;4190062;34;20212;-70
2021/08/04 03:49:34;;;;;;;7.78;3.45;;;;;;;;;;4190890;34;20216;-70
2021/08/04 03:52:00;;;;;;;5.30;3.30;;;;;;;;;;4191484;34;20409;-70
2021/08/04 03:54:26;;;;;;;6.53;3.25;;;;;;;;;;4192159;34;20129;-70
2021/08/04 03:56:52;;;;;;;11.95;3.40;;;;;;;;;;4191989;34;20132;-70
2021/08/04 03:59:17;;;;;;;6.05;3.40;;;;;;;;;;4191871;34;20197;-70
2021/08/04 04:01:43;;;;;;;5.10;3.08;;;;;;;;;;4191117;34;20118;-70
2021/08/04 04:04:09;;;;;;;5.72;3.25;;;;;;;;;;4192170;34;20130;-70
2021/08/04 04:06:35;;;;;;;7.03;3.17;;;;;;;;;;4191867;34;20156;-70
2021/08/04 04:09:01;;;;;;;8.38;3.03;;;;;;;;;;4191938;34;20141;-71
2021/08/04 04:11:27;;;;;;;12.65;3.37;;;;;;;;;;4191463;34;20134;-70
2021/08/04 04:13:53;;;;;;;8.27;3.30;;;;;;;;;;4167928;34;20126;-70
2021/08/04 04:16:19;;;;;;;15.57;3.72;;;;;;;;;;4191669;34;20140;-71
2021/08/04 04:18:45;;;;;;;7.60;3.90;;;;;;;;;;4191416;34;20107;-71
2021/08/04 04:21:11;;;;;;;6.68;3.90;;;;;;;;;;4191785;34;20474;-71
2021/08/04 04:23:37;;;;;;;86.72;30.95;;;;;;;;;;4191763;34;20133;-70
2021/08/04 04:26:03;;;;;;;11.88;4.78;;;;;;;;;;4191784;34;20478;-70
2021/08/04 04:28:29;;;;;;;13.95;6.65;;;;;;;;;;4191590;34;20121;-70
2021/08/04 04:30:55;;;;;;;41.15;14.87;;;;;;;;;;4191681;34;20514;-70
2021/08/04 04:33:21;;;;;;;14.38;6.00;;;;;;;;;;4191628;34;20121;-70
2021/08/04 04:35:47;;;;;;;12.43;4.85;;;;;;;;;;4178976;34;20225;-70
2021/08/04 04:38:12;;;;;;;8.70;4.57;;;;;;;;;;4191781;34;20114;-70
2021/08/04 04:40:38;;;;;;;15.10;4.55;;;;;;;;;;4191760;34;20241;-70
2021/08/04 04:43:04;;;;;;;12.77;4.82;;;;;;;;;;4191504;34;20091;-70
2021/08/04 04:45:30;;;;;;;26.05;9.30;;;;;;;;;;4191824;34;20530;-70
2021/08/04 04:47:56;;;;;;;9.20;3.90;;;;;;;;;;4191824;34;20590;-70
2021/08/04 04:50:22;;;;;;;7.47;3.90;;;;;;;;;;4178912;34;20137;-70
2021/08/04 04:52:48;;;;;;;14.98;4.07;;;;;;;;;;4191708;34;20583;-70
2021/08/04 04:55:14;;;;;;;9.73;3.75;;;;;;;;;;4191758;34;20125;-70
2021/08/04 04:57:40;;;;;;;11.48;3.92;;;;;;;;;;4190956;34;20286;-70
2021/08/04 05:00:06;;;;;;;13.95;4.50;;;;;;;;;;4191514;34;20150;-70
2021/08/04 05:02:32;;;;;;;5.85;3.70;;;;;;;;;;4191429;34;20098;-70
2021/08/04 05:04:58;;;;;;;10.18;3.87;;;;;;;;;;4178498;34;20451;-70
2021/08/04 05:07:25;;;;;;;11.93;5.60;;;;;;;;;;4191366;34;20125;-70
2021/08/04 05:09:51;;;;;;;17.75;5.18;;;;;;;;;;4191344;34;20543;-70
2021/08/04 05:12:17;;;;;;;11.85;5.07;;;;;;;;;;4178728;34;20424;-70
2021/08/04 05:14:43;;;;;;;13.98;6.78;;;;;;;;;;4191454;34;20109;-70
2021/08/04 05:17:13;;;;;;;16.65;6.93;;;;;;;;;;4191171;34;20185;-70
2021/08/04 05:19:39;;;;;;;22.45;7.43;;;;;;;;;;4191342;34;20192;-70
2021/08/04 05:22:05;;;;;;;29.85;12.75;;;;;;;;;;4191291;34;20157;-70
2021/08/04 05:24:31;;;;;;;39.03;13.00;;;;;;;;;;4191224;34;20530;-70
2021/08/04 05:26:57;;;;;;;33.00;12.93;;;;;;;;;;4191054;34;20122;-71
2021/08/04 05:29:23;;;;;;;33.30;13.73;;;;;;;;;;4191471;34;20208;-70
2021/08/04 05:31:48;;;;;;;37.70;15.27;;;;;;;;;;4190989;34;20150;-71
2021/08/04 05:34:16;;;;;;;39.40;13.95;;;;;;;;;;4191247;34;20200;-70
2021/08/04 05:36:43;;;;;;;35.78;12.32;;;;;;;;;;4190522;34;20118;-71
2021/08/04 05:39:09;;;;;;;29.77;11.75;;;;;;;;;;4191144;34;20108;-70
2021/08/04 05:41:34;;;;;;;23.90;10.30;;;;;;;;;;4190932;34;20146;-70
2021/08/04 05:44:00;;;;;;;28.65;10.02;;;;;;;;;;4191071;34;20102;-70
2021/08/04 05:46:26;;;;;;;30.27;11.15;;;;;;;;;;4191006;34;20621;-70
2021/08/04 05:48:52;;;;;;;24.67;11.38;;;;;;;;;;4191274;34;20125;-70
2021/08/04 05:51:18;;;;;;;24.42;10.13;;;;;;;;;;4191044;34;20110;-70
2021/08/04 05:53:44;;;;;;;23.42;8.82;;;;;;;;;;4190678;34;20583;-70
2021/08/04 05:56:10;;;;;;;28.12;9.63;;;;;;;;;;4178397;34;20126;-70
2021/08/04 05:58:35;;;;;;;22.92;9.60;;;;;;;;;;4190781;34;20110;-70
2021/08/04 06:01:01;;;;;;;29.42;8.98;;;;;;;;;;4190920;34;20474;-70
2021/08/04 06:03:27;;;;;;;27.95;11.18;;;;;;;;;;4191014;34;20128;-70
2021/08/04 06:05:53;;;;;;;20.17;8.90;;;;;;;;;;4190987;34;20132;-70
2021/08/04 06:08:19;;;;;;;33.20;11.63;;;;;;;;;;4190954;34;20142;-70
2021/08/04 06:10:45;;;;;;;28.33;11.12;;;;;;;;;;4190770;34;20475;-70
2021/08/04 06:13:10;;;;;;;26.12;10.48;;;;;;;;;;4190710;34;20467;-70
2021/08/04 06:15:37;;;;;;;36.38;11.77;;;;;;;;;;4190637;34;20137;-70
2021/08/04 06:18:03;;;;;;;37.25;12.32;;;;;;;;;;4190712;34;20569;-70
2021/08/04 06:20:29;;;;;;;36.85;12.18;;;;;;;;;;4190746;34;20126;-70
2021/08/04 06:22:55;;;;;;;48.67;14.10;;;;;;;;;;4178127;34;20124;-70
2021/08/04 06:25:24;;;;;;;47.25;13.48;;;;;;;;;;4190871;34;20138;-71
2021/08/04 06:27:51;;;;;;;30.23;12.70;;;;;;;;;;4190585;34;20122;-70
2021/08/04 06:30:17;;;;;;;33.25;12.77;;;;;;;;;;4190806;34;20102;-71
2021/08/04 06:32:43;;;;;;;35.47;12.15;;;;;;;;;;4190836;34;20129;-71
2021/08/04 06:35:09;;;;;;;34.15;12.30;;;;;;;;;;4190821;34;20137;-71
2021/08/04 06:37:35;;;;;;;27.08;9.32;;;;;;;;;;4190811;34;20130;-71
2021/08/04 06:40:02;;;;;;;20.20;7.93;;;;;;;;;;4190750;34;20509;-71
2021/08/04 06:42:28;;;;;;;23.17;6.30;;;;;;;;;;4190714;34;20104;-71
2021/08/04 06:44:54;;;;;;;7.18;4.12;;;;;;;;;;4190764;34;20291;-71
2021/08/04 06:47:20;;;;;;;8.27;4.30;;;;;;;;;;4190579;34;20098;-71
2021/08/04 06:49:46;;;;;;;8.70;3.92;;;;;;;;;;4190217;34;20130;-71
2021/08/04 06:52:11;;;;;;;11.57;4.07;;;;;;;;;;4190516;34;20113;-71
2021/08/04 06:54:37;;;;;;;5.75;4.18;;;;;;;;;;4190599;34;20619;-71
2021/08/04 06:57:03;;;;;;;6.65;4.28;;;;;;;;;;4190464;34;20525;-71
2021/08/04 06:59:29;;;;;;;8.73;3.90;;;;;;;;;;4190478;34;20470;-70
2021/08/04 07:01:55;;;;;;;9.02;4.37;;;;;;;;;;4190488;34;20094;-71
2021/08/04 07:04:21;;;;;;;9.65;3.67;;;;;;;;;;4190561;34;20221;-70
2021/08/04 07:06:54;;;;;;;7.35;4.78;;;;;;;;;;4190220;34;20112;-71
2021/08/04 07:09:20;;;;;;;10.60;5.57;;;;;;;;;;4178053;34;20124;-71
2021/08/04 07:11:46;;;;;;;10.65;3.12;;;;;;;;;;4177636;34;20189;-71
2021/08/04 07:14:12;;;;;;;8.02;4.00;;;;;;;;;;4190272;34;20157;-71
2021/08/04 07:16:38;;;;;;;10.35;3.08;;;;;;;;;;4190420;34;20137;-70
2021/08/04 07:19:03;;;;;;;10.20;4.35;;;;;;;;;;4190428;34;20186;-71
2021/08/04 07:21:29;;;;;;;6.37;3.65;;;;;;;;;;4189803;34;20266;-71
2021/08/04 07:23:55;;;;;;;5.80;3.60;;;;;;;;;;4190493;34;20107;-71
2021/08/04 07:26:21;;;;;;;6.03;4.22;;;;;;;;;;4190146;34;20216;-71
2021/08/04 07:28:47;;;;;;;8.57;4.35;;;;;;;;;;4190358;34;20523;-70
2021/08/04 07:31:13;;;;;;;6.90;3.97;;;;;;;;;;4190315;34;20126;-71
2021/08/04 07:33:40;;;;;;;9.70;4.20;;;;;;;;;;4177583;34;20324;-71
2021/08/04 07:36:06;;;;;;;6.25;3.70;;;;;;;;;;4190183;34;20510;-71
2021/08/04 07:38:33;;;;;;;5.25;3.60;;;;;;;;;;4190058;34;20130;-71
2021/08/04 07:40:59;;;;;;;8.98;3.90;;;;;;;;;;4177557;34;20214;-71
2021/08/04 07:43:25;;;;;;;8.10;4.28;;;;;;;;;;4190066;34;20133;-67
2021/08/04 07:45:51;;;;;;;7.45;4.05;;;;;;;;;;4190180;34;20196;-67
2021/08/04 07:48:17;;;;;;;4.80;3.75;;;;;;;;;;4190083;34;20129;-67
2021/08/04 07:50:43;;;;;;;5.30;4.00;;;;;;;;;;4177212;34;20213;-67
2021/08/04 07:53:09;;;;;;;7.93;4.15;;;;;;;;;;4177193;34;20137;-67
2021/08/04 07:55:34;;;;;;;8.40;3.78;;;;;;;;;;4190074;34;20094;-67
2021/08/04 07:58:00;;;;;;;8.75;3.85;;;;;;;;;;4189735;34;20114;-67
2021/08/04 08:00:27;;;;;;;7.57;4.25;;;;;;;;;;4190129;34;20187;-67
2021/08/04 08:02:53;;;;;;;11.70;3.85;;;;;;;;;;4190028;34;20523;-68
2021/08/04 08:05:19;;;;;;;6.80;3.53;;;;;;;;;;4189744;34;20145;-68
2021/08/04 08:07:48;;;;;;;4.03;3.45;;;;;;;;;;4189719;34;20228;-67
2021/08/04 08:10:15;;;;;;;9.60;3.70;;;;;;;;;;4189797;34;20125;-68
2021/08/04 08:12:41;;;;;;;8.07;3.75;;;;;;;;;;4189566;34;20097;-67
2021/08/04 08:15:08;;;;;;;6.57;2.90;;;;;;;;;;4189720;34;20118;-68
2021/08/04 08:17:34;;;;;;;8.30;3.10;;;;;;;;;;4189389;34;20458;-68
2021/08/04 08:19:59;;;;;;;7.47;3.50;;;;;;;;;;4189524;34;20125;-68
2021/08/04 08:22:25;;;;;;;4.65;3.20;;;;;;;;;;4189451;34;20130;-68
2021/08/04 08:24:51;;;;;;;8.48;3.42;;;;;;;;;;4189539;34;20463;-68
2021/08/04 08:27:17;;;;;;;7.32;3.40;;;;;;;;;;4189527;34;20122;-68
2021/08/04 08:29:43;;;;;;;4.10;3.42;;;;;;;;;;4189551;34;20132;-67
2021/08/04 08:32:09;;;;;;;8.55;3.42;;;;;;;;;;4189418;34;20126;-67
2021/08/04 08:34:35;;;;;;;3.92;3.05;;;;;;;;;;4191478;34;20478;-68
2021/08/04 08:37:01;;;;;;;5.03;2.90;;;;;;;;;;4191793;34;20112;-68
2021/08/04 08:39:26;;;;;;;7.18;3.37;;;;;;;;;;4191663;34;20269;-68
2021/08/04 08:41:52;;;;;;;8.45;3.22;;;;;;;;;;4191640;34;20110;-67
2021/08/04 08:44:19;;;;;;;5.68;3.10;;;;;;;;;;4191616;34;20141;-68
2021/08/04 08:46:44;;;;;;;8.52;3.80;;;;;;;;;;4191462;34;20554;-68
2021/08/04 08:49:10;;;;;;;5.12;2.22;;;;;;;;;;4191730;34;20118;-67
2021/08/04 08:51:36;;;;;;;6.62;3.28;;;;;;;;;;4191457;34;20565;-68
2021/08/04 08:54:02;;;;;;;5.28;2.35;;;;;;;;;;4191548;34;20118;-67
2021/08/04 08:56:28;;;;;;;12.30;3.45;;;;;;;;;;4191533;34;20149;-68
2021/08/04 08:58:55;;;;;;;4.05;2.75;;;;;;;;;;4191554;34;20463;-68
2021/08/04 09:01:50;;;;;;;21.58;5.93;;;;;;;;;;4191525;34;20624;-68
2021/08/04 09:04:16;;;;;;;8.40;3.53;;;;;;;;;;4188165;34;20130;-68
2021/08/04 09:06:50;;;;;;;3.47;2.65;;;;;;;;;;4191189;34;20121;-68
2021/08/04 09:09:22;;;;;;;4.57;2.72;;;;;;;;;;4191392;34;20114;-68
2021/08/04 09:11:56;;;;;;;10.55;3.37;;;;;;;;;;4191533;34;20113;-68
2021/08/04 09:14:28;;;;;;;3.95;2.70;;;;;;;;;;4179084;34;20098;-68
2021/08/04 09:17:05;;;;;;;3.97;2.28;;;;;;;;;;4190910;34;20546;-68
2021/08/04 09:19:32;;;;;;;6.20;3.45;;;;;;;;;;4191151;34;20098;-67
2021/08/04 09:22:05;;;;;;;5.37;3.15;;;;;;;;;;4178463;34;20181;-67
2021/08/04 09:25:10;;;;;;;5.60;3.55;;;;;;;;;;4191236;34;20212;-68
2021/08/04 09:27:49;;;;;;;6.60;4.00;;;;;;;;;;4191309;34;20105;-68
2021/08/04 09:30:16;;;;;;;7.55;3.87;;;;;;;;;;4178684;34;20553;-67
2021/08/04 09:32:42;;;;;;;12.05;4.60;;;;;;;;;;4191067;34;20467;-67
2021/08/04 09:35:14;;;;;;;8.07;4.60;;;;;;;;;;4191237;34;20118;-67
2021/08/04 09:37:40;;;;;;;11.80;3.90;;;;;;;;;;4191259;34;20205;-67
2021/08/04 09:40:07;;;;;;;6.32;3.53;;;;;;;;;;4178652;34;20126;-67
2021/08/04 09:42:40;;;;;;;7.50;4.20;;;;;;;;;;4191084;34;20190;-67
2021/08/04 09:45:06;;;;;;;6.70;3.80;;;;;;;;;;4190685;34;20133;-67
2021/08/04 09:47:32;;;;;;;3.80;2.92;;;;;;;;;;4178087;34;20116;-67
2021/08/04 09:50:06;;;;;;;6.45;3.95;;;;;;;;;;4191050;34;20217;-67
2021/08/04 09:52:32;;;;;;;4.10;3.20;;;;;;;;;;4191059;34;20232;-67
2021/08/04 09:55:16;;;;;;;11.50;3.97;;;;;;;;;;4178509;34;20133;-67
2021/08/04 09:57:46;;;;;;;4.82;4.12;;;;;;;;;;4190953;34;20102;-67
2021/08/04 10:00:13;;;;;;;9.35;3.22;;;;;;;;;;4178400;34;20193;-67
2021/08/04 10:02:39;;;;;;;4.32;2.83;;;;;;;;;;4190816;34;20150;-67
2021/08/04 10:05:25;;;;;;;10.98;4.40;;;;;;;;;;4178130;34;20213;-68
2021/08/04 10:08:07;;;;;;;17.00;4.07;;;;;;;;;;4190883;34;20125;-68
2021/08/04 10:10:34;;;;;;;7.18;3.10;;;;;;;;;;4190853;34;20102;-68
2021/08/04 10:13:01;;;;;;;8.75;4.28;;;;;;;;;;4190643;34;20629;-68
2021/08/04 10:15:28;;;;;;;11.43;4.62;;;;;;;;;;4190835;34;20102;-69
2021/08/04 10:17:54;;;;;;;4.85;3.45;;;;;;;;;;4190642;34;20140;-68
2021/08/04 10:20:20;;;;;;;4.18;3.33;;;;;;;;;;4166625;34;20126;-69
2021/08/04 10:22:45;;;;;;;4.57;3.70;;;;;;;;;;4177971;34;20572;-68
2021/08/04 10:25:11;;;;;;;3.85;3.35;;;;;;;;;;4190874;34;20132;-68
2021/08/04 10:27:37;;;;;;;5.95;3.70;;;;;;;;;;4166618;34;20110;-68
2021/08/04 10:30:03;;;;;;;3.60;3.22;;;;;;;;;;4166780;34;20134;-68
2021/08/04 10:32:31;;;;;;;2.65;2.35;;;;;;;;;;4190685;34;20098;-68
2021/08/04 10:34:57;;;;;;;3.83;2.60;;;;;;;;;;4167093;34;20113;-68
2021/08/04 10:37:24;;;;;;;4.82;3.70;;;;;;;;;;4166475;34;20206;-68
2021/08/04 10:39:50;;;;;;;6.75;4.20;;;;;;;;;;4190529;34;20459;-68
2021/08/04 10:42:16;;;;;;;6.37;3.78;;;;;;;;;;4177956;34;20110;-68
2021/08/04 10:44:44;;;;;;;6.75;4.87;;;;;;;;;;4177839;34;20250;-68
2021/08/04 10:47:26;;;;;;;9.13;4.80;;;;;;;;;;4177998;34;20596;-68
2021/08/04 10:50:11;;;;;;;12.37;4.12;;;;;;;;;;4190460;34;20579;-68
2021/08/04 10:52:57;;;;;;;5.03;3.05;;;;;;;;;;4177520;34;20522;-68
2021/08/04 10:55:29;;;;;;;7.90;3.90;;;;;;;;;;4189695;34;20125;-68
2021/08/04 10:58:04;;;;;;;5.12;3.67;;;;;;;;;;4190416;34;20128;-68
2021/08/04 11:00:30;;;;;;;;;;;;;;;;;;4190875;34;20189;-68
2021/08/04 11:02:56;;;;;;;4.90;3.83;;;;;;;;;;4190279;34;20580;-68
2021/08/04 11:05:22;;;;;;;4.05;3.17;;;;;;;;;;4177479;34;20561;-68
2021/08/04 11:08:17;;;;;;;7.43;3.75;;;;;;;;;;4190352;34;20110;-68
2021/08/04 11:10:43;;;;;;;6.82;4.25;;;;;;;;;;4190713;34;20448;-67
2021/08/04 11:13:09;;;;;;;6.55;3.75;;;;;;;;;;4190089;34;20198;-66
2021/08/04 11:15:35;;;;;;;5.55;3.20;;;;;;;;;;4190342;34;20330;-67
2021/08/04 11:18:07;;;;;;;5.22;2.87;;;;;;;;;;4189831;34;20098;-66
2021/08/04 11:20:38;;;;;;;3.75;2.85;;;;;;;;;;4190144;34;20197;-66
2021/08/04 11:23:05;;;;;;;4.70;3.33;;;;;;;;;;4190322;34;20539;-67
2021/08/04 11:25:33;;;;;;;8.75;3.65;;;;;;;;;;4177545;34;20098;-68
2021/08/04 11:27:59;;;;;;;4.07;2.97;;;;;;;;;;4190183;34;20110;-67
2021/08/04 11:30:36;;;;;;;3.87;2.75;;;;;;;;;;4190027;34;20226;-67
2021/08/04 11:33:29;;;;;;;6.37;3.70;;;;;;;;;;4190005;34;20138;-67
2021/08/04 11:36:14;;;;;;;10.38;3.40;;;;;;;;;;4190165;34;20519;-67
2021/08/04 11:38:46;;;;;;;6.43;3.17;;;;;;;;;;4177493;34;20583;-67
2021/08/04 11:41:23;;;;;;;4.65;3.45;;;;;;;;;;4190192;34;20102;-68
2021/08/04 11:43:50;;;;;;;4.95;2.97;;;;;;;;;;4189848;34;20114;-68
2021/08/04 11:46:32;;;;;;;6.25;3.87;;;;;;;;;;4177135;34;20096;-67
2021/08/04 11:48:58;;;;;;;5.68;3.10;;;;;;;;;;4189884;34;20171;-67
2021/08/04 11:51:38;;;;;;;3.37;2.55;;;;;;;;;;4190012;34;20109;-68
2021/08/04 11:54:05;;;;;;;4.15;3.25;;;;;;;;;;4177485;34;20111;-67
2021/08/04 11:56:31;;;;;;;5.78;3.75;;;;;;;;;;4189950;34;20108;-67
2021/08/04 11:59:04;;;;;;;8.02;4.03;;;;;;;;;;4189889;34;20565;-68
2021/08/04 12:01:30;;;;;;;6.50;3.58;;;;;;;;;;4189718;34;20525;-68
2021/08/04 12:04:11;;;;;;;7.65;3.75;;;;;;;;;;4189875;34;20130;-68
2021/08/04 12:06:41;;;;;;;5.95;3.40;;;;;;;;;;4189909;34;20223;-67
2021/08/04 12:09:17;;;;;;;6.22;3.87;;;;;;;;;;4191863;34;20539;-67
2021/08/04 12:11:43;;;;;;;5.35;3.92;;;;;;;;;;4191861;34;20102;-67
2021/08/04 12:14:09;;;;;;;8.85;4.37;;;;;;;;;;4179133;34;20225;-68
2021/08/04 12:16:43;;;;;;;7.37;3.72;;;;;;;;;;4179009;34;20101;-67
2021/08/04 12:19:09;;;;;;;5.85;3.97;;;;;;;;;;4178922;34;20515;-67
2021/08/04 12:21:36;;;;;;;7.12;3.10;;;;;;;;;;4178842;34;20565;-68
2021/08/04 12:24:02;;;;;;;6.07;5.07;;;;;;;;;;4179162;34;20130;-67
2021/08/04 12:26:41;;;;;;;7.82;4.05;;;;;;;;;;4191451;34;20213;-67
2021/08/04 12:29:18;;;;;;;5.20;4.53;;;;;;;;;;4180461;34;20098;-67
2021/08/04 12:32:03;;;;;;;6.80;4.55;;;;;;;;;;4191606;34;20129;-67
2021/08/04 12:34:30;;;;;;;4.00;3.20;;;;;;;;;;4179533;34;20175;-67
2021/08/04 12:36:56;;;;;;;7.80;4.60;;;;;;;;;;4191482;34;20129;-67
2021/08/04 12:39:28;;;;;;;4.47;3.42;;;;;;;;;;4178881;34;20589;-67
2021/08/04 12:41:53;;;;;;;10.35;5.28;;;;;;;;;;4178981;34;20106;-67
2021/08/04 12:44:19;;;;;;;6.87;4.05;;;;;;;;;;4191596;34;20526;-67
2021/08/04 12:46:45;;;;;;;7.65;4.10;;;;;;;;;;4191459;34;20110;-68
2021/08/04 12:49:21;;;;;;;20.33;4.22;;;;;;;;;;4191583;34;20133;-67
2021/08/04 12:51:54;;;;;;;6.30;4.32;;;;;;;;;;4191468;34;20534;-68
2021/08/04 12:54:34;;;;;;;4.93;3.62;;;;;;;;;;4191704;34;20431;-68
2021/08/04 12:57:00;;;;;;;4.55;3.47;;;;;;;;;;4191297;34;20289;-67
2021/08/04 12:59:41;;;;;;;4.37;3.33;;;;;;;;;;4178719;34;20618;-68
2021/08/04 13:02:08;;;;;;;7.60;3.47;;;;;;;;;;4191464;34;20114;-69
2021/08/04 13:04:34;;;;;;;11.07;4.93;;;;;;;;;;4191439;34;20612;-68
2021/08/04 13:07:01;;;;;;;6.45;4.25;;;;;;;;;;4191515;34;20110;-68
2021/08/04 13:09:29;;;;;;;9.48;3.85;;;;;;;;;;4191400;34;20528;-68
2021/08/04 13:12:12;;;;;;;10.30;3.85;;;;;;;;;;4178955;34;20118;-68
2021/08/04 13:15:07;;;;;;;5.10;3.58;;;;;;;;;;4191361;34;20109;-68
2021/08/04 13:17:35;;;;;;;6.60;4.15;;;;;;;;;;4190895;34;20110;-68
2021/08/04 13:20:27;;;;;;;7.00;4.00;;;;;;;;;;4190616;34;20166;-68
2021/08/04 13:23:13;;;;;;;6.55;5.10;;;;;;;;;;4185433;34;20194;-68
2021/08/04 13:25:43;;;;;;;5.28;3.80;;;;;;;;;;4191225;34;20094;-68
2021/08/04 13:28:13;;;;;;;4.70;3.65;;;;;;;;;;4191025;34;20129;-68
2021/08/04 13:30:42;;;;;;;5.28;4.20;;;;;;;;;;4191178;34;20470;-68
2021/08/04 13:33:10;;;;;;;5.45;3.78;;;;;;;;;;4190690;34;20126;-68
2021/08/04 13:35:37;;;;;;;6.40;4.60;;;;;;;;;;4191232;34;20563;-68
2021/08/04 13:38:03;;;;;;;5.60;4.65;;;;;;;;;;4178600;34;20147;-68
2021/08/04 13:40:30;;;;;;;10.05;4.37;;;;;;;;;;4191040;34;20128;-68
2021/08/04 13:42:56;;;;;;;13.38;6.90;;;;;;;;;;4191026;34;20526;-68
2021/08/04 13:45:23;;;;;;;6.30;4.93;;;;;;;;;;4191009;34;20229;-68
2021/08/04 13:47:49;;;;;;;7.72;5.00;;;;;;;;;;4191080;34;20117;-68
2021/08/04 13:50:17;;;;;;;6.70;4.78;;;;;;;;;;4191110;34;20217;-68
2021/08/04 13:52:43;;;;;;;7.80;5.12;;;;;;;;;;4178209;34;20634;-68
2021/08/04 13:55:11;;;;;;;8.18;4.95;;;;;;;;;;4191071;34;20533;-68
2021/08/04 13:57:38;;;;;;;7.72;4.68;;;;;;;;;;4190553;34;20189;-68
2021/08/04 14:00:06;;;;;;;14.27;5.00;;;;;;;;;;4191006;34;20115;-67
2021/08/04 14:02:32;;;;;;;8.65;4.82;;;;;;;;;;4191129;34;20186;-67
2021/08/04 14:04:58;;;;;;;7.72;4.95;;;;;;;;;;4190989;34;20153;-68
2021/08/04 14:07:24;;;;;;;7.30;4.70;;;;;;;;;;4177925;34;20122;-68
2021/08/04 14:09:50;;;;;;;6.30;4.50;;;;;;;;;;4178065;34;20194;-68
2021/08/04 14:12:17;;;;;;;8.80;4.60;;;;;;;;;;4177928;34;20145;-68
2021/08/04 14:14:42;;;;;;;6.30;4.35;;;;;;;;;;4190786;34;20129;-68
2021/08/04 14:17:08;;;;;;;7.35;4.60;;;;;;;;;;4190724;34;20125;-69
2021/08/04 14:19:34;;;;;;;7.30;5.07;;;;;;;;;;4190569;34;20191;-68
2021/08/04 14:22:00;;;;;;;7.93;4.57;;;;;;;;;;4190889;34;20209;-67
2021/08/04 14:24:26;;;;;;;7.50;4.53;;;;;;;;;;4190812;34;20209;-68
2021/08/04 14:26:52;;;;;;;9.00;4.35;;;;;;;;;;4190778;34;20109;-70
2021/08/04 14:29:18;;;;;;;8.32;3.78;;;;;;;;;;4191082;34;20230;-67
2021/08/04 14:31:45;;;;;;;9.45;4.80;;;;;;;;;;4190621;34;20157;-67
2021/08/04 14:34:11;;;;;;;5.53;4.60;;;;;;;;;;4190595;34;20130;-67
2021/08/04 14:36:37;;;;;;;4.80;4.07;;;;;;;;;;4190124;34;20451;-67
2021/08/04 14:39:03;;;;;;;6.65;3.70;;;;;;;;;;4188461;34;20218;-67
2021/08/04 14:41:28;;;;;;;4.95;3.83;;;;;;;;;;4175459;34;20216;-67
2021/08/04 14:43:54;;;;;;;5.85;3.72;;;;;;;;;;4188507;34;20128;-67
2021/08/04 14:46:23;;;;;;;9.82;4.62;;;;;;;;;;4188372;34;20125;-68
2021/08/04 14:48:49;;;;;;;5.62;3.97;;;;;;;;;;4188295;34;20197;-68
2021/08/04 14:51:14;;;;;;;8.90;3.95;;;;;;;;;;4175667;34;20145;-68
2021/08/04 14:53:40;;;;;;;9.15;4.10;;;;;;;;;;4189959;34;20118;-68
2021/08/04 14:56:08;;;;;;;7.75;3.83;;;;;;;;;;4190450;34;20156;-68
2021/08/04 14:58:34;;;;;;;7.40;3.80;;;;;;;;;;4166209;34;20177;-68
2021/08/04 15:01:00;;;;;;;6.90;3.62;;;;;;;;;;4177784;34;20141;-68